sensor_id;sensor_type;location;lat;lon;timestamp;P1;durP1;ratioP1;P2;durP2;ratioP2
8938;SDS011;4504;48.810;9.172;2023-02-12T00:02:06;122.15;;;9.10;;
8938;SDS011;4504;48.810;9.172;2023-02-12T00:04:34;124.60;;;10.32;;
8938;SDS011;4504;48.810;9.172;2023-02-12T00:07:04;125.05;;;10.00;;
8938;SDS011;4504;48.810;9.172;2023-02-12T00:09:30;124.97;;;10.10;;
8938;SDS011;4504;48.810;9.172;2023-02-12T00:11:57;122.47;;;9.35;;
8938;SDS011;4504;48.810;9.172;2023-02-12T00:14:25;124.20;;;10.93;;
8938;SDS011;4504;48.810;9.172;2023-02-12T00:16:52;123.70;;;10.18;;
8938;SDS011;4504;48.810;9.172;2023-02-12T00:19:19;124.43;;;10.55;;
8938;SDS011;4504;48.810;9.172;2023-02-12T00:21:45;118.00;;;9.55;;
8938;SDS011;4504;48.810;9.172;2023-02-12T00:24:14;123.18;;;10.40;;
8938;SDS011;4504;48.810;9.172;2023-02-12T00:26:41;119.75;;;9.40;;
8938;SDS011;4504;48.810;9.172;2023-02-12T00:29:08;129.38;;;9.57;;
8938;SDS011;4504;48.810;9.172;2023-02-12T00:31:35;123.78;;;10.00;;
8938;SDS011;4504;48.810;9.172;2023-02-12T00:34:02;122.03;;;9.90;;
8938;SDS011;4504;48.810;9.172;2023-02-12T00:36:29;113.13;;;8.50;;
8938;SDS011;4504;48.810;9.172;2023-02-12T00:38:58;123.38;;;9.00;;
8938;SDS011;4504;48.810;9.172;2023-02-12T00:41:27;121.38;;;9.23;;
8938;SDS011;4504;48.810;9.172;2023-02-12T00:43:54;121.10;;;9.40;;
8938;SDS011;4504;48.810;9.172;2023-02-12T00:46:21;126.90;;;9.27;;
8938;SDS011;4504;48.810;9.172;2023-02-12T00:48:48;125.38;;;10.20;;
8938;SDS011;4504;48.810;9.172;2023-02-12T00:51:18;118.55;;;9.13;;
8938;SDS011;4504;48.810;9.172;2023-02-12T00:53:45;115.50;;;9.25;;
8938;SDS011;4504;48.810;9.172;2023-02-12T00:56:12;120.10;;;9.40;;
8938;SDS011;4504;48.810;9.172;2023-02-12T00:58:40;124.55;;;9.90;;
8938;SDS011;4504;48.810;9.172;2023-02-12T01:01:07;121.55;;;9.68;;
8938;SDS011;4504;48.810;9.172;2023-02-12T01:03:34;121.72;;;9.73;;
8938;SDS011;4504;48.810;9.172;2023-02-12T01:06:02;120.95;;;10.35;;
8938;SDS011;4504;48.810;9.172;2023-02-12T01:08:30;121.78;;;9.40;;
8938;SDS011;4504;48.810;9.172;2023-02-12T01:10:57;123.43;;;10.43;;
8938;SDS011;4504;48.810;9.172;2023-02-12T01:13:27;122.75;;;9.10;;
8938;SDS011;4504;48.810;9.172;2023-02-12T01:16:04;122.97;;;9.90;;
8938;SDS011;4504;48.810;9.172;2023-02-12T01:18:34;124.47;;;9.35;;
8938;SDS011;4504;48.810;9.172;2023-02-12T01:21:02;122.22;;;10.00;;
8938;SDS011;4504;48.810;9.172;2023-02-12T01:23:34;121.22;;;9.55;;
8938;SDS011;4504;48.810;9.172;2023-02-12T01:26:01;125.75;;;9.25;;
8938;SDS011;4504;48.810;9.172;2023-02-12T01:28:28;128.10;;;11.45;;
8938;SDS011;4504;48.810;9.172;2023-02-12T01:30:55;124.47;;;10.63;;
8938;SDS011;4504;48.810;9.172;2023-02-12T01:33:24;118.65;;;10.77;;
8938;SDS011;4504;48.810;9.172;2023-02-12T01:35:51;122.85;;;10.02;;
8938;SDS011;4504;48.810;9.172;2023-02-12T01:38:18;122.38;;;9.20;;
8938;SDS011;4504;48.810;9.172;2023-02-12T01:40:44;121.25;;;10.35;;
8938;SDS011;4504;48.810;9.172;2023-02-12T01:43:11;124.78;;;10.43;;
8938;SDS011;4504;48.810;9.172;2023-02-12T01:45:43;123.65;;;9.63;;
8938;SDS011;4504;48.810;9.172;2023-02-12T01:48:17;123.72;;;10.13;;
8938;SDS011;4504;48.810;9.172;2023-02-12T01:50:47;125.03;;;9.63;;
8938;SDS011;4504;48.810;9.172;2023-02-12T01:53:16;122.82;;;9.95;;
8938;SDS011;4504;48.810;9.172;2023-02-12T01:55:47;126.18;;;10.05;;
8938;SDS011;4504;48.810;9.172;2023-02-12T01:58:16;126.75;;;10.07;;
8938;SDS011;4504;48.810;9.172;2023-02-12T02:00:44;127.72;;;10.43;;
8938;SDS011;4504;48.810;9.172;2023-02-12T02:03:11;130.02;;;9.90;;
8938;SDS011;4504;48.810;9.172;2023-02-12T02:05:40;122.30;;;9.93;;
8938;SDS011;4504;48.810;9.172;2023-02-12T02:08:12;122.75;;;10.52;;
8938;SDS011;4504;48.810;9.172;2023-02-12T02:10:39;120.80;;;9.82;;
8938;SDS011;4504;48.810;9.172;2023-02-12T02:13:06;124.28;;;10.80;;
8938;SDS011;4504;48.810;9.172;2023-02-12T02:15:53;122.82;;;10.23;;
8938;SDS011;4504;48.810;9.172;2023-02-12T02:18:23;123.85;;;9.35;;
8938;SDS011;4504;48.810;9.172;2023-02-12T02:21:04;121.85;;;10.10;;
8938;SDS011;4504;48.810;9.172;2023-02-12T02:26:55;122.32;;;9.95;;
8938;SDS011;4504;48.810;9.172;2023-02-12T02:33:07;118.97;;;9.07;;
8938;SDS011;4504;48.810;9.172;2023-02-12T02:35:45;121.05;;;9.15;;
8938;SDS011;4504;48.810;9.172;2023-02-12T02:38:20;124.55;;;10.32;;
8938;SDS011;4504;48.810;9.172;2023-02-12T02:40:52;126.63;;;9.75;;
8938;SDS011;4504;48.810;9.172;2023-02-12T02:43:27;120.90;;;8.77;;
8938;SDS011;4504;48.810;9.172;2023-02-12T02:45:58;127.50;;;10.52;;
8938;SDS011;4504;48.810;9.172;2023-02-12T02:48:31;124.15;;;9.95;;
8938;SDS011;4504;48.810;9.172;2023-02-12T02:51:03;121.68;;;8.63;;
8938;SDS011;4504;48.810;9.172;2023-02-12T02:53:36;125.32;;;9.77;;
8938;SDS011;4504;48.810;9.172;2023-02-12T02:56:07;122.05;;;11.05;;
8938;SDS011;4504;48.810;9.172;2023-02-12T02:58:40;129.23;;;10.68;;
8938;SDS011;4504;48.810;9.172;2023-02-12T03:01:10;124.80;;;9.75;;
8938;SDS011;4504;48.810;9.172;2023-02-12T03:03:44;121.55;;;9.82;;
8938;SDS011;4504;48.810;9.172;2023-02-12T03:06:19;125.47;;;11.18;;
8938;SDS011;4504;48.810;9.172;2023-02-12T03:08:52;120.80;;;9.35;;
8938;SDS011;4504;48.810;9.172;2023-02-12T03:11:23;125.68;;;11.73;;
8938;SDS011;4504;48.810;9.172;2023-02-12T03:13:54;122.13;;;9.65;;
8938;SDS011;4504;48.810;9.172;2023-02-12T03:16:28;122.53;;;10.23;;
8938;SDS011;4504;48.810;9.172;2023-02-12T03:19:00;122.03;;;10.38;;
8938;SDS011;4504;48.810;9.172;2023-02-12T03:21:32;121.18;;;9.35;;
8938;SDS011;4504;48.810;9.172;2023-02-12T03:24:04;127.90;;;11.02;;
8938;SDS011;4504;48.810;9.172;2023-02-12T03:26:39;125.40;;;9.43;;
8938;SDS011;4504;48.810;9.172;2023-02-12T03:29:10;122.15;;;10.23;;
8938;SDS011;4504;48.810;9.172;2023-02-12T03:31:41;120.55;;;9.27;;
8938;SDS011;4504;48.810;9.172;2023-02-12T03:34:23;124.07;;;10.45;;
8938;SDS011;4504;48.810;9.172;2023-02-12T03:36:55;120.93;;;8.90;;
8938;SDS011;4504;48.810;9.172;2023-02-12T03:39:27;127.10;;;11.38;;
8938;SDS011;4504;48.810;9.172;2023-02-12T03:42:00;125.45;;;10.25;;
8938;SDS011;4504;48.810;9.172;2023-02-12T03:44:38;121.82;;;10.70;;
8938;SDS011;4504;48.810;9.172;2023-02-12T03:47:13;125.85;;;10.25;;
8938;SDS011;4504;48.810;9.172;2023-02-12T03:49:50;123.68;;;9.80;;
8938;SDS011;4504;48.810;9.172;2023-02-12T03:52:24;123.20;;;9.80;;
8938;SDS011;4504;48.810;9.172;2023-02-12T03:54:51;122.13;;;9.35;;
8938;SDS011;4504;48.810;9.172;2023-02-12T03:57:19;121.25;;;9.98;;
8938;SDS011;4504;48.810;9.172;2023-02-12T03:59:47;120.20;;;10.10;;
8938;SDS011;4504;48.810;9.172;2023-02-12T04:02:15;124.10;;;10.00;;
8938;SDS011;4504;48.810;9.172;2023-02-12T04:04:43;126.28;;;11.00;;
8938;SDS011;4504;48.810;9.172;2023-02-12T04:07:14;125.65;;;10.63;;
8938;SDS011;4504;48.810;9.172;2023-02-12T04:09:41;119.82;;;9.80;;
8938;SDS011;4504;48.810;9.172;2023-02-12T04:12:14;121.30;;;9.23;;
8938;SDS011;4504;48.810;9.172;2023-02-12T04:14:53;117.40;;;8.70;;
8938;SDS011;4504;48.810;9.172;2023-02-12T04:17:28;132.02;;;9.98;;
8938;SDS011;4504;48.810;9.172;2023-02-12T04:20:04;125.60;;;11.13;;
8938;SDS011;4504;48.810;9.172;2023-02-12T04:22:42;121.18;;;9.80;;
8938;SDS011;4504;48.810;9.172;2023-02-12T04:25:18;121.38;;;9.60;;
8938;SDS011;4504;48.810;9.172;2023-02-12T04:27:52;121.07;;;9.73;;
8938;SDS011;4504;48.810;9.172;2023-02-12T04:30:25;121.85;;;9.65;;
8938;SDS011;4504;48.810;9.172;2023-02-12T04:32:57;123.20;;;10.25;;
8938;SDS011;4504;48.810;9.172;2023-02-12T04:35:28;121.00;;;10.35;;
8938;SDS011;4504;48.810;9.172;2023-02-12T04:38:02;119.15;;;8.77;;
8938;SDS011;4504;48.810;9.172;2023-02-12T04:40:35;120.20;;;9.30;;
8938;SDS011;4504;48.810;9.172;2023-02-12T04:43:04;118.88;;;8.60;;
8938;SDS011;4504;48.810;9.172;2023-02-12T04:45:33;121.75;;;9.25;;
8938;SDS011;4504;48.810;9.172;2023-02-12T04:48:00;131.88;;;11.15;;
8938;SDS011;4504;48.810;9.172;2023-02-12T04:50:30;124.10;;;9.98;;
8938;SDS011;4504;48.810;9.172;2023-02-12T04:53:05;125.07;;;9.82;;
8938;SDS011;4504;48.810;9.172;2023-02-12T04:55:32;121.80;;;10.13;;
8938;SDS011;4504;48.810;9.172;2023-02-12T04:58:00;120.25;;;9.63;;
8938;SDS011;4504;48.810;9.172;2023-02-12T05:00:27;120.73;;;9.87;;
8938;SDS011;4504;48.810;9.172;2023-02-12T05:02:54;121.68;;;10.10;;
8938;SDS011;4504;48.810;9.172;2023-02-12T05:05:21;125.32;;;11.15;;
8938;SDS011;4504;48.810;9.172;2023-02-12T05:07:48;121.50;;;10.52;;
8938;SDS011;4504;48.810;9.172;2023-02-12T05:10:17;125.30;;;10.00;;
8938;SDS011;4504;48.810;9.172;2023-02-12T05:12:45;124.32;;;10.18;;
8938;SDS011;4504;48.810;9.172;2023-02-12T05:15:11;119.78;;;9.32;;
8938;SDS011;4504;48.810;9.172;2023-02-12T05:17:38;123.68;;;10.50;;
8938;SDS011;4504;48.810;9.172;2023-02-12T05:20:06;122.38;;;9.82;;
8938;SDS011;4504;48.810;9.172;2023-02-12T05:22:33;127.35;;;10.73;;
8938;SDS011;4504;48.810;9.172;2023-02-12T05:25:00;127.55;;;10.15;;
8938;SDS011;4504;48.810;9.172;2023-02-12T05:27:29;123.72;;;9.75;;
8938;SDS011;4504;48.810;9.172;2023-02-12T05:29:56;121.93;;;9.70;;
8938;SDS011;4504;48.810;9.172;2023-02-12T05:32:23;125.82;;;10.60;;
8938;SDS011;4504;48.810;9.172;2023-02-12T05:34:50;121.60;;;10.15;;
8938;SDS011;4504;48.810;9.172;2023-02-12T05:37:17;122.57;;;10.13;;
8938;SDS011;4504;48.810;9.172;2023-02-12T05:39:44;122.00;;;10.32;;
8938;SDS011;4504;48.810;9.172;2023-02-12T05:42:10;123.15;;;10.45;;
8938;SDS011;4504;48.810;9.172;2023-02-12T05:44:39;117.45;;;9.85;;
8938;SDS011;4504;48.810;9.172;2023-02-12T05:47:06;120.10;;;9.52;;
8938;SDS011;4504;48.810;9.172;2023-02-12T05:49:33;122.90;;;9.38;;
8938;SDS011;4504;48.810;9.172;2023-02-12T05:52:00;123.78;;;9.15;;
8938;SDS011;4504;48.810;9.172;2023-02-12T05:54:28;120.90;;;10.07;;
8938;SDS011;4504;48.810;9.172;2023-02-12T05:56:55;122.32;;;9.15;;
8938;SDS011;4504;48.810;9.172;2023-02-12T05:59:22;119.05;;;9.23;;
8938;SDS011;4504;48.810;9.172;2023-02-12T06:01:51;119.82;;;9.73;;
8938;SDS011;4504;48.810;9.172;2023-02-12T06:04:19;119.80;;;9.45;;
8938;SDS011;4504;48.810;9.172;2023-02-12T06:06:47;121.88;;;9.77;;
8938;SDS011;4504;48.810;9.172;2023-02-12T06:09:14;124.95;;;10.20;;
8938;SDS011;4504;48.810;9.172;2023-02-12T06:11:41;126.72;;;10.57;;
8938;SDS011;4504;48.810;9.172;2023-02-12T06:14:10;120.25;;;8.70;;
8938;SDS011;4504;48.810;9.172;2023-02-12T06:16:39;129.70;;;9.70;;
8938;SDS011;4504;48.810;9.172;2023-02-12T06:19:08;123.38;;;10.15;;
8938;SDS011;4504;48.810;9.172;2023-02-12T06:21:35;122.05;;;9.95;;
8938;SDS011;4504;48.810;9.172;2023-02-12T06:24:02;129.35;;;10.05;;
8938;SDS011;4504;48.810;9.172;2023-02-12T06:26:29;119.68;;;9.13;;
8938;SDS011;4504;48.810;9.172;2023-02-12T06:28:56;120.13;;;9.07;;
8938;SDS011;4504;48.810;9.172;2023-02-12T06:31:24;120.97;;;8.40;;
8938;SDS011;4504;48.810;9.172;2023-02-12T06:33:53;121.00;;;9.15;;
8938;SDS011;4504;48.810;9.172;2023-02-12T06:36:23;122.55;;;10.30;;
8938;SDS011;4504;48.810;9.172;2023-02-12T06:38:50;122.65;;;10.23;;
8938;SDS011;4504;48.810;9.172;2023-02-12T06:41:17;125.90;;;10.52;;
8938;SDS011;4504;48.810;9.172;2023-02-12T06:43:44;124.22;;;9.18;;
8938;SDS011;4504;48.810;9.172;2023-02-12T06:46:11;121.45;;;9.75;;
8938;SDS011;4504;48.810;9.172;2023-02-12T06:48:39;121.47;;;8.50;;
8938;SDS011;4504;48.810;9.172;2023-02-12T06:51:07;119.90;;;10.27;;
8938;SDS011;4504;48.810;9.172;2023-02-12T06:53:37;122.77;;;9.80;;
8938;SDS011;4504;48.810;9.172;2023-02-12T06:56:05;121.55;;;9.73;;
8938;SDS011;4504;48.810;9.172;2023-02-12T06:58:35;122.32;;;9.80;;
8938;SDS011;4504;48.810;9.172;2023-02-12T07:01:08;121.68;;;9.98;;
8938;SDS011;4504;48.810;9.172;2023-02-12T07:03:38;121.88;;;9.85;;
8938;SDS011;4504;48.810;9.172;2023-02-12T07:06:05;128.70;;;10.75;;
8938;SDS011;4504;48.810;9.172;2023-02-12T07:08:32;127.35;;;11.23;;
8938;SDS011;4504;48.810;9.172;2023-02-12T07:11:01;121.38;;;10.48;;
8938;SDS011;4504;48.810;9.172;2023-02-12T07:13:28;125.63;;;10.35;;
8938;SDS011;4504;48.810;9.172;2023-02-12T07:15:55;123.45;;;10.15;;
8938;SDS011;4504;48.810;9.172;2023-02-12T07:18:22;120.28;;;9.60;;
8938;SDS011;4504;48.810;9.172;2023-02-12T07:20:49;121.28;;;10.00;;
8938;SDS011;4504;48.810;9.172;2023-02-12T07:23:15;115.75;;;9.23;;
8938;SDS011;4504;48.810;9.172;2023-02-12T07:25:42;118.53;;;9.38;;
8938;SDS011;4504;48.810;9.172;2023-02-12T07:28:11;123.57;;;9.88;;
8938;SDS011;4504;48.810;9.172;2023-02-12T07:30:38;123.30;;;8.60;;
8938;SDS011;4504;48.810;9.172;2023-02-12T07:33:04;121.80;;;9.63;;
8938;SDS011;4504;48.810;9.172;2023-02-12T07:35:31;124.78;;;12.23;;
8938;SDS011;4504;48.810;9.172;2023-02-12T07:37:58;122.82;;;10.27;;
8938;SDS011;4504;48.810;9.172;2023-02-12T07:40:25;117.32;;;10.85;;
8938;SDS011;4504;48.810;9.172;2023-02-12T07:42:53;122.88;;;9.90;;
8938;SDS011;4504;48.810;9.172;2023-02-12T07:45:22;120.45;;;8.88;;
8938;SDS011;4504;48.810;9.172;2023-02-12T07:47:49;121.57;;;9.60;;
8938;SDS011;4504;48.810;9.172;2023-02-12T07:50:16;124.70;;;10.05;;
8938;SDS011;4504;48.810;9.172;2023-02-12T07:52:43;123.97;;;10.63;;
8938;SDS011;4504;48.810;9.172;2023-02-12T07:55:10;123.88;;;11.52;;
8938;SDS011;4504;48.810;9.172;2023-02-12T07:57:37;122.82;;;10.40;;
8938;SDS011;4504;48.810;9.172;2023-02-12T08:00:05;122.22;;;10.27;;
8938;SDS011;4504;48.810;9.172;2023-02-12T08:02:38;119.53;;;9.77;;
8938;SDS011;4504;48.810;9.172;2023-02-12T08:05:06;126.43;;;10.30;;
8938;SDS011;4504;48.810;9.172;2023-02-12T08:07:33;122.82;;;10.82;;
8938;SDS011;4504;48.810;9.172;2023-02-12T08:10:00;127.05;;;10.75;;
8938;SDS011;4504;48.810;9.172;2023-02-12T08:12:27;122.13;;;10.70;;
8938;SDS011;4504;48.810;9.172;2023-02-12T08:14:54;124.80;;;9.98;;
8938;SDS011;4504;48.810;9.172;2023-02-12T08:17:21;124.68;;;11.02;;
8938;SDS011;4504;48.810;9.172;2023-02-12T08:19:49;120.80;;;9.98;;
8938;SDS011;4504;48.810;9.172;2023-02-12T08:22:16;122.53;;;10.50;;
8938;SDS011;4504;48.810;9.172;2023-02-12T08:24:43;121.80;;;10.13;;
8938;SDS011;4504;48.810;9.172;2023-02-12T08:27:10;122.97;;;10.27;;
8938;SDS011;4504;48.810;9.172;2023-02-12T08:29:37;124.55;;;10.85;;
8938;SDS011;4504;48.810;9.172;2023-02-12T08:32:04;124.15;;;10.43;;
8938;SDS011;4504;48.810;9.172;2023-02-12T08:34:34;125.13;;;9.98;;
8938;SDS011;4504;48.810;9.172;2023-02-12T08:37:03;123.75;;;10.10;;
8938;SDS011;4504;48.810;9.172;2023-02-12T08:39:31;123.80;;;11.77;;
8938;SDS011;4504;48.810;9.172;2023-02-12T08:41:58;123.15;;;11.15;;
8938;SDS011;4504;48.810;9.172;2023-02-12T08:44:25;122.18;;;9.40;;
8938;SDS011;4504;48.810;9.172;2023-02-12T08:46:53;119.90;;;10.63;;
8938;SDS011;4504;48.810;9.172;2023-02-12T08:49:21;125.22;;;10.68;;
8938;SDS011;4504;48.810;9.172;2023-02-12T08:51:50;125.55;;;10.48;;
8938;SDS011;4504;48.810;9.172;2023-02-12T08:54:20;122.85;;;10.73;;
8938;SDS011;4504;48.810;9.172;2023-02-12T08:56:48;122.63;;;9.85;;
8938;SDS011;4504;48.810;9.172;2023-02-12T08:59:16;124.47;;;10.77;;
8938;SDS011;4504;48.810;9.172;2023-02-12T09:01:43;128.85;;;11.60;;
8938;SDS011;4504;48.810;9.172;2023-02-12T09:04:11;127.10;;;10.80;;
8938;SDS011;4504;48.810;9.172;2023-02-12T09:06:42;125.22;;;10.65;;
8938;SDS011;4504;48.810;9.172;2023-02-12T09:09:09;128.07;;;11.48;;
8938;SDS011;4504;48.810;9.172;2023-02-12T09:11:38;127.38;;;11.60;;
8938;SDS011;4504;48.810;9.172;2023-02-12T09:14:05;123.47;;;10.93;;
8938;SDS011;4504;48.810;9.172;2023-02-12T09:16:33;132.98;;;10.85;;
8938;SDS011;4504;48.810;9.172;2023-02-12T09:19:01;127.90;;;10.02;;
8938;SDS011;4504;48.810;9.172;2023-02-12T09:21:28;122.00;;;10.32;;
8938;SDS011;4504;48.810;9.172;2023-02-12T09:23:55;126.60;;;12.18;;
8938;SDS011;4504;48.810;9.172;2023-02-12T09:26:23;160.30;;;23.45;;
8938;SDS011;4504;48.810;9.172;2023-02-12T09:28:52;127.25;;;12.85;;
8938;SDS011;4504;48.810;9.172;2023-02-12T09:31:20;123.80;;;11.48;;
8938;SDS011;4504;48.810;9.172;2023-02-12T09:33:50;122.90;;;10.88;;
8938;SDS011;4504;48.810;9.172;2023-02-12T09:36:18;123.80;;;11.52;;
8938;SDS011;4504;48.810;9.172;2023-02-12T09:38:45;132.40;;;12.07;;
8938;SDS011;4504;48.810;9.172;2023-02-12T09:41:26;126.03;;;11.38;;
8938;SDS011;4504;48.810;9.172;2023-02-12T09:44:14;124.47;;;11.00;;
8938;SDS011;4504;48.810;9.172;2023-02-12T09:46:47;127.97;;;10.15;;
8938;SDS011;4504;48.810;9.172;2023-02-12T09:49:22;126.75;;;10.55;;
8938;SDS011;4504;48.810;9.172;2023-02-12T09:52:04;124.65;;;10.60;;
8938;SDS011;4504;48.810;9.172;2023-02-12T09:54:35;125.78;;;10.50;;
8938;SDS011;4504;48.810;9.172;2023-02-12T09:57:05;125.45;;;10.90;;
8938;SDS011;4504;48.810;9.172;2023-02-12T09:59:42;123.57;;;10.45;;
8938;SDS011;4504;48.810;9.172;2023-02-12T10:02:13;122.93;;;10.15;;
8938;SDS011;4504;48.810;9.172;2023-02-12T10:04:42;125.03;;;9.52;;
8938;SDS011;4504;48.810;9.172;2023-02-12T10:07:13;120.85;;;9.85;;
8938;SDS011;4504;48.810;9.172;2023-02-12T10:09:57;122.30;;;9.38;;
8938;SDS011;4504;48.810;9.172;2023-02-12T10:12:37;120.43;;;10.00;;
8938;SDS011;4504;48.810;9.172;2023-02-12T10:15:16;124.43;;;11.10;;
8938;SDS011;4504;48.810;9.172;2023-02-12T10:17:54;127.13;;;12.30;;
8938;SDS011;4504;48.810;9.172;2023-02-12T10:20:33;122.20;;;9.30;;
8938;SDS011;4504;48.810;9.172;2023-02-12T10:23:09;121.75;;;8.85;;
8938;SDS011;4504;48.810;9.172;2023-02-12T10:25:47;118.47;;;7.85;;
8938;SDS011;4504;48.810;9.172;2023-02-12T10:28:18;119.80;;;8.75;;
8938;SDS011;4504;48.810;9.172;2023-02-12T10:30:52;123.47;;;8.88;;
8938;SDS011;4504;48.810;9.172;2023-02-12T10:33:24;120.63;;;8.45;;
8938;SDS011;4504;48.810;9.172;2023-02-12T10:35:55;124.05;;;8.02;;
8938;SDS011;4504;48.810;9.172;2023-02-12T10:38:29;125.03;;;8.93;;
8938;SDS011;4504;48.810;9.172;2023-02-12T10:41:00;122.25;;;8.82;;
8938;SDS011;4504;48.810;9.172;2023-02-12T10:43:27;121.53;;;9.02;;
8938;SDS011;4504;48.810;9.172;2023-02-12T10:45:56;120.78;;;9.05;;
8938;SDS011;4504;48.810;9.172;2023-02-12T10:48:24;120.97;;;9.40;;
8938;SDS011;4504;48.810;9.172;2023-02-12T10:51:05;121.90;;;9.27;;
8938;SDS011;4504;48.810;9.172;2023-02-12T10:53:45;122.50;;;9.13;;
8938;SDS011;4504;48.810;9.172;2023-02-12T10:56:15;116.75;;;7.35;;
8938;SDS011;4504;48.810;9.172;2023-02-12T10:58:51;118.15;;;7.28;;
8938;SDS011;4504;48.810;9.172;2023-02-12T11:01:22;115.90;;;6.57;;
8938;SDS011;4504;48.810;9.172;2023-02-12T11:03:52;115.10;;;6.00;;
8938;SDS011;4504;48.810;9.172;2023-02-12T11:06:21;114.85;;;6.03;;
8938;SDS011;4504;48.810;9.172;2023-02-12T11:08:50;115.28;;;5.95;;
8938;SDS011;4504;48.810;9.172;2023-02-12T11:11:19;116.60;;;5.50;;
8938;SDS011;4504;48.810;9.172;2023-02-12T11:13:52;116.18;;;5.43;;
8938;SDS011;4504;48.810;9.172;2023-02-12T11:16:27;114.65;;;5.00;;
8938;SDS011;4504;48.810;9.172;2023-02-12T11:18:59;115.93;;;5.25;;
8938;SDS011;4504;48.810;9.172;2023-02-12T11:21:28;113.90;;;5.18;;
8938;SDS011;4504;48.810;9.172;2023-02-12T11:23:56;116.38;;;5.45;;
8938;SDS011;4504;48.810;9.172;2023-02-12T11:26:43;117.15;;;5.47;;
8938;SDS011;4504;48.810;9.172;2023-02-12T11:29:16;114.97;;;5.10;;
8938;SDS011;4504;48.810;9.172;2023-02-12T11:31:58;115.07;;;5.40;;
8938;SDS011;4504;48.810;9.172;2023-02-12T11:34:26;117.20;;;5.55;;
8938;SDS011;4504;48.810;9.172;2023-02-12T11:36:54;115.13;;;5.70;;
8938;SDS011;4504;48.810;9.172;2023-02-12T11:39:22;113.68;;;4.72;;
8938;SDS011;4504;48.810;9.172;2023-02-12T11:41:54;112.53;;;4.97;;
8938;SDS011;4504;48.810;9.172;2023-02-12T11:44:24;115.10;;;5.07;;
8938;SDS011;4504;48.810;9.172;2023-02-12T11:46:55;115.05;;;5.18;;
8938;SDS011;4504;48.810;9.172;2023-02-12T11:49:26;114.07;;;5.10;;
8938;SDS011;4504;48.810;9.172;2023-02-12T11:51:56;114.38;;;4.95;;
8938;SDS011;4504;48.810;9.172;2023-02-12T11:54:26;115.18;;;5.25;;
8938;SDS011;4504;48.810;9.172;2023-02-12T11:56:56;112.47;;;4.68;;
8938;SDS011;4504;48.810;9.172;2023-02-12T11:59:27;113.70;;;4.93;;
8938;SDS011;4504;48.810;9.172;2023-02-12T12:01:59;116.22;;;5.32;;
8938;SDS011;4504;48.810;9.172;2023-02-12T12:04:31;113.60;;;4.70;;
8938;SDS011;4504;48.810;9.172;2023-02-12T12:07:02;114.45;;;5.00;;
8938;SDS011;4504;48.810;9.172;2023-02-12T12:09:38;113.93;;;5.13;;
8938;SDS011;4504;48.810;9.172;2023-02-12T12:12:09;112.80;;;4.95;;
8938;SDS011;4504;48.810;9.172;2023-02-12T12:14:43;113.13;;;4.63;;
8938;SDS011;4504;48.810;9.172;2023-02-12T12:17:35;112.75;;;4.25;;
8938;SDS011;4504;48.810;9.172;2023-02-12T12:20:26;113.32;;;4.90;;
8938;SDS011;4504;48.810;9.172;2023-02-12T12:22:57;113.88;;;4.80;;
8938;SDS011;4504;48.810;9.172;2023-02-12T12:25:28;113.43;;;4.65;;
8938;SDS011;4504;48.810;9.172;2023-02-12T12:28:03;112.78;;;4.60;;
8938;SDS011;4504;48.810;9.172;2023-02-12T12:30:40;111.35;;;4.47;;
8938;SDS011;4504;48.810;9.172;2023-02-12T12:33:20;113.50;;;4.93;;
8938;SDS011;4504;48.810;9.172;2023-02-12T12:35:58;114.35;;;4.78;;
8938;SDS011;4504;48.810;9.172;2023-02-12T12:38:54;114.70;;;4.72;;
8938;SDS011;4504;48.810;9.172;2023-02-12T12:41:31;114.47;;;4.93;;
8938;SDS011;4504;48.810;9.172;2023-02-12T12:44:16;113.75;;;5.15;;
8938;SDS011;4504;48.810;9.172;2023-02-12T12:46:57;114.82;;;4.72;;
8938;SDS011;4504;48.810;9.172;2023-02-12T12:49:37;113.53;;;5.00;;
8938;SDS011;4504;48.810;9.172;2023-02-12T12:52:25;113.60;;;4.80;;
8938;SDS011;4504;48.810;9.172;2023-02-12T12:55:15;114.13;;;4.82;;
8938;SDS011;4504;48.810;9.172;2023-02-12T12:58:06;113.47;;;4.53;;
8938;SDS011;4504;48.810;9.172;2023-02-12T13:00:46;115.38;;;4.68;;
8938;SDS011;4504;48.810;9.172;2023-02-12T13:03:35;115.22;;;4.70;;
8938;SDS011;4504;48.810;9.172;2023-02-12T13:06:38;114.05;;;4.50;;
8938;SDS011;4504;48.810;9.172;2023-02-12T13:09:23;115.72;;;4.78;;
8938;SDS011;4504;48.810;9.172;2023-02-12T13:12:12;114.32;;;4.82;;
8938;SDS011;4504;48.810;9.172;2023-02-12T13:14:51;113.47;;;4.75;;
8938;SDS011;4504;48.810;9.172;2023-02-12T13:17:24;115.20;;;5.00;;
8938;SDS011;4504;48.810;9.172;2023-02-12T13:19:59;116.85;;;5.13;;
8938;SDS011;4504;48.810;9.172;2023-02-12T13:22:35;115.07;;;4.90;;
8938;SDS011;4504;48.810;9.172;2023-02-12T13:25:14;119.05;;;5.28;;
8938;SDS011;4504;48.810;9.172;2023-02-12T13:27:47;114.78;;;4.78;;
8938;SDS011;4504;48.810;9.172;2023-02-12T13:30:18;114.53;;;4.53;;
8938;SDS011;4504;48.810;9.172;2023-02-12T13:32:49;115.32;;;4.10;;
8938;SDS011;4504;48.810;9.172;2023-02-12T13:35:24;114.75;;;4.68;;
8938;SDS011;4504;48.810;9.172;2023-02-12T13:37:56;115.82;;;4.35;;
8938;SDS011;4504;48.810;9.172;2023-02-12T13:40:26;113.82;;;4.80;;
8938;SDS011;4504;48.810;9.172;2023-02-12T13:42:56;115.68;;;4.88;;
8938;SDS011;4504;48.810;9.172;2023-02-12T13:45:33;119.38;;;6.70;;
8938;SDS011;4504;48.810;9.172;2023-02-12T13:48:15;113.78;;;4.68;;
8938;SDS011;4504;48.810;9.172;2023-02-12T13:50:49;114.95;;;4.68;;
8938;SDS011;4504;48.810;9.172;2023-02-12T13:53:28;113.55;;;3.80;;
8938;SDS011;4504;48.810;9.172;2023-02-12T13:56:04;113.32;;;4.18;;
8938;SDS011;4504;48.810;9.172;2023-02-12T13:58:38;112.78;;;3.92;;
8938;SDS011;4504;48.810;9.172;2023-02-12T14:04:12;113.90;;;4.13;;
8938;SDS011;4504;48.810;9.172;2023-02-12T14:06:50;115.20;;;4.45;;
8938;SDS011;4504;48.810;9.172;2023-02-12T14:09:20;113.00;;;3.95;;
8938;SDS011;4504;48.810;9.172;2023-02-12T14:11:54;111.00;;;3.40;;
8938;SDS011;4504;48.810;9.172;2023-02-12T14:14:25;113.25;;;4.00;;
8938;SDS011;4504;48.810;9.172;2023-02-12T14:16:56;114.18;;;4.20;;
8938;SDS011;4504;48.810;9.172;2023-02-12T14:19:36;113.78;;;3.83;;
8938;SDS011;4504;48.810;9.172;2023-02-12T14:25:34;114.00;;;4.15;;
8938;SDS011;4504;48.810;9.172;2023-02-12T14:28:06;114.45;;;4.00;;
8938;SDS011;4504;48.810;9.172;2023-02-12T14:30:45;113.72;;;3.72;;
8938;SDS011;4504;48.810;9.172;2023-02-12T14:42:56;113.05;;;3.42;;
8938;SDS011;4504;48.810;9.172;2023-02-12T14:45:28;113.47;;;3.78;;
8938;SDS011;4504;48.810;9.172;2023-02-12T14:47:57;113.65;;;3.83;;
8938;SDS011;4504;48.810;9.172;2023-02-12T14:50:29;118.13;;;7.00;;
8938;SDS011;4504;48.810;9.172;2023-02-12T14:53:12;116.35;;;5.55;;
8938;SDS011;4504;48.810;9.172;2023-02-12T14:55:51;111.88;;;3.95;;
8938;SDS011;4504;48.810;9.172;2023-02-12T14:58:19;115.47;;;4.27;;
8938;SDS011;4504;48.810;9.172;2023-02-12T15:00:49;116.07;;;4.35;;
8938;SDS011;4504;48.810;9.172;2023-02-12T15:03:21;114.03;;;3.75;;
8938;SDS011;4504;48.810;9.172;2023-02-12T15:05:53;113.70;;;3.88;;
8938;SDS011;4504;48.810;9.172;2023-02-12T15:08:27;112.22;;;3.78;;
8938;SDS011;4504;48.810;9.172;2023-02-12T15:11:01;113.60;;;3.67;;
8938;SDS011;4504;48.810;9.172;2023-02-12T15:13:38;113.75;;;3.60;;
8938;SDS011;4504;48.810;9.172;2023-02-12T15:16:13;113.22;;;3.83;;
8938;SDS011;4504;48.810;9.172;2023-02-12T15:18:50;112.50;;;3.40;;
8938;SDS011;4504;48.810;9.172;2023-02-12T15:21:22;112.97;;;3.75;;
8938;SDS011;4504;48.810;9.172;2023-02-12T15:24:06;111.97;;;3.40;;
8938;SDS011;4504;48.810;9.172;2023-02-12T15:26:35;113.03;;;3.65;;
8938;SDS011;4504;48.810;9.172;2023-02-12T15:29:05;112.43;;;3.30;;
8938;SDS011;4504;48.810;9.172;2023-02-12T15:31:33;112.70;;;3.58;;